sensor_id;sensor_type;location;lat;lon;timestamp;P1;durP1;ratioP1;P2;durP2;ratioP2
870;SDS011;422;51.280;7.236;2022-08-04T00:02:06;3.37;;;3.07;;
870;SDS011;422;51.280;7.236;2022-08-04T00:04:44;3.37;;;3.00;;
870;SDS011;422;51.280;7.236;2022-08-04T00:07:20;4.83;;;3.40;;
870;SDS011;422;51.280;7.236;2022-08-04T00:10:06;4.20;;;3.67;;
870;SDS011;422;51.280;7.236;2022-08-04T00:12:35;4.73;;;3.77;;
870;SDS011;422;51.280;7.236;2022-08-04T00:15:09;4.07;;;3.27;;
870;SDS011;422;51.280;7.236;2022-08-04T00:17:40;7.03;;;3.47;;
870;SDS011;422;51.280;7.236;2022-08-04T00:20:10;3.77;;;2.97;;
870;SDS011;422;51.280;7.236;2022-08-04T00:22:47;4.30;;;3.20;;
870;SDS011;422;51.280;7.236;2022-08-04T00:25:22;5.03;;;3.60;;
870;SDS011;422;51.280;7.236;2022-08-04T00:27:51;3.80;;;3.23;;
870;SDS011;422;51.280;7.236;2022-08-04T00:30:21;6.33;;;3.47;;
870;SDS011;422;51.280;7.236;2022-08-04T00:32:54;3.77;;;3.03;;
870;SDS011;422;51.280;7.236;2022-08-04T00:35:23;4.93;;;3.93;;
870;SDS011;422;51.280;7.236;2022-08-04T00:37:53;5.83;;;3.40;;
870;SDS011;422;51.280;7.236;2022-08-04T00:40:27;4.10;;;3.40;;
870;SDS011;422;51.280;7.236;2022-08-04T00:43:05;5.60;;;3.13;;
870;SDS011;422;51.280;7.236;2022-08-04T00:48:41;5.63;;;3.80;;
870;SDS011;422;51.280;7.236;2022-08-04T00:51:28;4.70;;;3.37;;
870;SDS011;422;51.280;7.236;2022-08-04T00:54:05;5.30;;;3.47;;
870;SDS011;422;51.280;7.236;2022-08-04T00:56:44;4.10;;;3.30;;
870;SDS011;422;51.280;7.236;2022-08-04T00:59:32;4.90;;;3.13;;
870;SDS011;422;51.280;7.236;2022-08-04T01:02:16;7.10;;;3.70;;
870;SDS011;422;51.280;7.236;2022-08-04T01:04:55;5.80;;;3.80;;
870;SDS011;422;51.280;7.236;2022-08-04T01:07:36;4.10;;;3.67;;
870;SDS011;422;51.280;7.236;2022-08-04T01:10:17;4.27;;;3.60;;
870;SDS011;422;51.280;7.236;2022-08-04T01:13:02;5.70;;;3.33;;
870;SDS011;422;51.280;7.236;2022-08-04T01:18:41;5.53;;;4.13;;
870;SDS011;422;51.280;7.236;2022-08-04T01:21:28;4.10;;;2.93;;
870;SDS011;422;51.280;7.236;2022-08-04T01:24:24;5.13;;;3.70;;
870;SDS011;422;51.280;7.236;2022-08-04T01:27:03;5.10;;;3.77;;
870;SDS011;422;51.280;7.236;2022-08-04T01:29:39;3.83;;;3.10;;
870;SDS011;422;51.280;7.236;2022-08-04T01:32:18;5.80;;;3.40;;
870;SDS011;422;51.280;7.236;2022-08-04T01:34:55;4.03;;;3.07;;
870;SDS011;422;51.280;7.236;2022-08-04T01:37:39;5.37;;;3.23;;
870;SDS011;422;51.280;7.236;2022-08-04T01:40:15;4.97;;;3.27;;
870;SDS011;422;51.280;7.236;2022-08-04T01:42:51;4.07;;;3.40;;
870;SDS011;422;51.280;7.236;2022-08-04T01:45:20;5.63;;;3.03;;
870;SDS011;422;51.280;7.236;2022-08-04T01:47:51;5.17;;;3.33;;
870;SDS011;422;51.280;7.236;2022-08-04T01:50:20;11.50;;;4.10;;
870;SDS011;422;51.280;7.236;2022-08-04T01:52:51;6.30;;;2.80;;
870;SDS011;422;51.280;7.236;2022-08-04T01:55:19;5.93;;;3.57;;
870;SDS011;422;51.280;7.236;2022-08-04T01:57:49;2.90;;;2.60;;
870;SDS011;422;51.280;7.236;2022-08-04T02:00:18;6.47;;;3.30;;
870;SDS011;422;51.280;7.236;2022-08-04T02:02:48;4.93;;;3.47;;
870;SDS011;422;51.280;7.236;2022-08-04T02:05:20;4.67;;;3.07;;
870;SDS011;422;51.280;7.236;2022-08-04T02:11:07;4.40;;;3.30;;
870;SDS011;422;51.280;7.236;2022-08-04T02:13:45;6.37;;;3.43;;
870;SDS011;422;51.280;7.236;2022-08-04T02:16:23;4.37;;;3.10;;
870;SDS011;422;51.280;7.236;2022-08-04T02:19:00;4.30;;;3.77;;
870;SDS011;422;51.280;7.236;2022-08-04T02:21:30;5.10;;;3.27;;
870;SDS011;422;51.280;7.236;2022-08-04T02:24:00;5.50;;;3.20;;
870;SDS011;422;51.280;7.236;2022-08-04T02:26:34;6.17;;;4.00;;
870;SDS011;422;51.280;7.236;2022-08-04T02:29:07;3.73;;;2.80;;
870;SDS011;422;51.280;7.236;2022-08-04T02:31:42;6.90;;;3.80;;
870;SDS011;422;51.280;7.236;2022-08-04T02:34:17;7.17;;;3.20;;
870;SDS011;422;51.280;7.236;2022-08-04T02:36:51;9.73;;;3.73;;
870;SDS011;422;51.280;7.236;2022-08-04T02:39:20;4.73;;;3.20;;
870;SDS011;422;51.280;7.236;2022-08-04T02:41:49;5.77;;;3.83;;
870;SDS011;422;51.280;7.236;2022-08-04T02:44:19;6.23;;;3.20;;
870;SDS011;422;51.280;7.236;2022-08-04T02:46:49;6.70;;;3.43;;
870;SDS011;422;51.280;7.236;2022-08-04T02:49:22;7.53;;;3.27;;
870;SDS011;422;51.280;7.236;2022-08-04T02:51:53;6.13;;;3.40;;
870;SDS011;422;51.280;7.236;2022-08-04T02:54:24;5.40;;;3.37;;
870;SDS011;422;51.280;7.236;2022-08-04T02:56:57;6.33;;;3.93;;
870;SDS011;422;51.280;7.236;2022-08-04T02:59:28;4.30;;;3.27;;
870;SDS011;422;51.280;7.236;2022-08-04T03:02:04;7.87;;;3.50;;
870;SDS011;422;51.280;7.236;2022-08-04T03:04:41;4.00;;;3.30;;
870;SDS011;422;51.280;7.236;2022-08-04T03:10:25;4.63;;;3.80;;
870;SDS011;422;51.280;7.236;2022-08-04T03:13:15;6.33;;;3.20;;
870;SDS011;422;51.280;7.236;2022-08-04T03:16:18;6.93;;;3.60;;
870;SDS011;422;51.280;7.236;2022-08-04T03:19:12;4.63;;;3.20;;
870;SDS011;422;51.280;7.236;2022-08-04T03:22:10;6.00;;;3.77;;
870;SDS011;422;51.280;7.236;2022-08-04T03:28:15;5.90;;;3.00;;
870;SDS011;422;51.280;7.236;2022-08-04T03:31:09;7.33;;;3.13;;
870;SDS011;422;51.280;7.236;2022-08-04T03:34:02;6.87;;;3.33;;
870;SDS011;422;51.280;7.236;2022-08-04T03:36:53;7.03;;;3.50;;
870;SDS011;422;51.280;7.236;2022-08-04T03:52:11;4.33;;;3.93;;
870;SDS011;422;51.280;7.236;2022-08-04T03:55:22;6.07;;;4.03;;
870;SDS011;422;51.280;7.236;2022-08-04T04:01:16;5.60;;;3.40;;
870;SDS011;422;51.280;7.236;2022-08-04T04:04:02;4.97;;;3.27;;
870;SDS011;422;51.280;7.236;2022-08-04T04:07:05;5.27;;;3.43;;
870;SDS011;422;51.280;7.236;2022-08-04T04:13:16;5.70;;;4.33;;
870;SDS011;422;51.280;7.236;2022-08-04T04:16:03;6.90;;;3.40;;
870;SDS011;422;51.280;7.236;2022-08-04T04:18:56;5.07;;;4.10;;
870;SDS011;422;51.280;7.236;2022-08-04T04:24:43;4.20;;;3.80;;
870;SDS011;422;51.280;7.236;2022-08-04T04:27:23;4.50;;;3.97;;
870;SDS011;422;51.280;7.236;2022-08-04T04:30:11;4.40;;;3.57;;
870;SDS011;422;51.280;7.236;2022-08-04T04:35:37;5.30;;;4.40;;
870;SDS011;422;51.280;7.236;2022-08-04T04:44:31;4.30;;;3.63;;
870;SDS011;422;51.280;7.236;2022-08-04T04:47:23;5.37;;;4.47;;
870;SDS011;422;51.280;7.236;2022-08-04T04:49:59;5.37;;;4.30;;
870;SDS011;422;51.280;7.236;2022-08-04T04:52:35;6.23;;;3.90;;
870;SDS011;422;51.280;7.236;2022-08-04T04:55:12;5.20;;;4.70;;
870;SDS011;422;51.280;7.236;2022-08-04T04:57:44;4.50;;;4.07;;
870;SDS011;422;51.280;7.236;2022-08-04T05:00:15;4.10;;;3.70;;
870;SDS011;422;51.280;7.236;2022-08-04T05:08:56;3.70;;;3.40;;
870;SDS011;422;51.280;7.236;2022-08-04T05:11:44;4.30;;;3.90;;
870;SDS011;422;51.280;7.236;2022-08-04T05:14:32;6.50;;;4.27;;
870;SDS011;422;51.280;7.236;2022-08-04T05:17:03;4.20;;;3.90;;
870;SDS011;422;51.280;7.236;2022-08-04T05:19:41;4.70;;;3.80;;
870;SDS011;422;51.280;7.236;2022-08-04T05:22:17;5.40;;;4.30;;
870;SDS011;422;51.280;7.236;2022-08-04T05:24:48;4.70;;;4.30;;
870;SDS011;422;51.280;7.236;2022-08-04T05:27:24;4.53;;;3.70;;
870;SDS011;422;51.280;7.236;2022-08-04T05:29:57;4.00;;;3.33;;
870;SDS011;422;51.280;7.236;2022-08-04T05:32:30;4.50;;;4.10;;
870;SDS011;422;51.280;7.236;2022-08-04T05:35:08;4.17;;;3.70;;
870;SDS011;422;51.280;7.236;2022-08-04T05:37:37;4.23;;;3.83;;
870;SDS011;422;51.280;7.236;2022-08-04T05:40:12;4.80;;;4.30;;
870;SDS011;422;51.280;7.236;2022-08-04T05:42:44;4.00;;;3.70;;
870;SDS011;422;51.280;7.236;2022-08-04T05:45:13;5.63;;;4.47;;
870;SDS011;422;51.280;7.236;2022-08-04T05:47:40;4.20;;;3.80;;
870;SDS011;422;51.280;7.236;2022-08-04T05:50:12;4.80;;;3.97;;
870;SDS011;422;51.280;7.236;2022-08-04T05:52:40;7.17;;;4.00;;
870;SDS011;422;51.280;7.236;2022-08-04T05:55:08;7.13;;;4.80;;
870;SDS011;422;51.280;7.236;2022-08-04T05:57:38;4.83;;;4.43;;
870;SDS011;422;51.280;7.236;2022-08-04T06:00:08;6.03;;;3.30;;
870;SDS011;422;51.280;7.236;2022-08-04T06:02:40;3.97;;;3.67;;
870;SDS011;422;51.280;7.236;2022-08-04T06:05:10;6.13;;;3.50;;
870;SDS011;422;51.280;7.236;2022-08-04T06:07:42;3.93;;;3.57;;
870;SDS011;422;51.280;7.236;2022-08-04T06:10:13;7.13;;;4.70;;
870;SDS011;422;51.280;7.236;2022-08-04T06:12:43;4.97;;;4.00;;
870;SDS011;422;51.280;7.236;2022-08-04T06:15:16;3.83;;;3.23;;
870;SDS011;422;51.280;7.236;2022-08-04T06:17:48;3.77;;;3.47;;
870;SDS011;422;51.280;7.236;2022-08-04T06:20:21;3.40;;;3.20;;
870;SDS011;422;51.280;7.236;2022-08-04T06:22:53;4.20;;;3.80;;
870;SDS011;422;51.280;7.236;2022-08-04T06:25:25;3.90;;;3.60;;
870;SDS011;422;51.280;7.236;2022-08-04T06:27:56;5.30;;;3.50;;
870;SDS011;422;51.280;7.236;2022-08-04T06:30:27;4.40;;;4.00;;
870;SDS011;422;51.280;7.236;2022-08-04T06:32:57;4.33;;;3.27;;
870;SDS011;422;51.280;7.236;2022-08-04T06:35:28;4.97;;;3.40;;
870;SDS011;422;51.280;7.236;2022-08-04T06:37:56;4.07;;;3.67;;
870;SDS011;422;51.280;7.236;2022-08-04T06:40:29;3.67;;;3.37;;
870;SDS011;422;51.280;7.236;2022-08-04T06:42:58;3.80;;;3.10;;
870;SDS011;422;51.280;7.236;2022-08-04T06:45:28;4.13;;;3.83;;
870;SDS011;422;51.280;7.236;2022-08-04T06:47:58;3.40;;;3.20;;
870;SDS011;422;51.280;7.236;2022-08-04T06:50:26;6.50;;;3.80;;
870;SDS011;422;51.280;7.236;2022-08-04T06:52:54;3.63;;;3.33;;
870;SDS011;422;51.280;7.236;2022-08-04T06:55:25;4.13;;;3.73;;
870;SDS011;422;51.280;7.236;2022-08-04T06:57:53;4.33;;;3.93;;
870;SDS011;422;51.280;7.236;2022-08-04T07:00:24;3.87;;;3.60;;
870;SDS011;422;51.280;7.236;2022-08-04T07:02:54;3.90;;;3.50;;
870;SDS011;422;51.280;7.236;2022-08-04T07:05:23;4.30;;;4.00;;
870;SDS011;422;51.280;7.236;2022-08-04T07:07:50;5.60;;;3.70;;
870;SDS011;422;51.280;7.236;2022-08-04T07:10:18;4.07;;;3.67;;
870;SDS011;422;51.280;7.236;2022-08-04T07:12:49;3.67;;;3.37;;
870;SDS011;422;51.280;7.236;2022-08-04T07:15:19;3.40;;;3.10;;
870;SDS011;422;51.280;7.236;2022-08-04T07:17:48;4.10;;;3.70;;
870;SDS011;422;51.280;7.236;2022-08-04T07:20:24;4.20;;;3.80;;
870;SDS011;422;51.280;7.236;2022-08-04T07:22:52;5.07;;;3.93;;
870;SDS011;422;51.280;7.236;2022-08-04T07:25:28;3.50;;;3.30;;
870;SDS011;422;51.280;7.236;2022-08-04T07:27:58;3.30;;;3.00;;
870;SDS011;422;51.280;7.236;2022-08-04T07:30:26;5.57;;;2.90;;
870;SDS011;422;51.280;7.236;2022-08-04T07:33:00;3.30;;;3.00;;
870;SDS011;422;51.280;7.236;2022-08-04T07:35:28;3.40;;;3.20;;
870;SDS011;422;51.280;7.236;2022-08-04T07:37:57;3.60;;;3.00;;
870;SDS011;422;51.280;7.236;2022-08-04T07:40:24;3.30;;;2.90;;
870;SDS011;422;51.280;7.236;2022-08-04T07:42:52;3.30;;;3.10;;
870;SDS011;422;51.280;7.236;2022-08-04T07:45:22;3.67;;;3.37;;
870;SDS011;422;51.280;7.236;2022-08-04T07:47:50;3.83;;;3.50;;
870;SDS011;422;51.280;7.236;2022-08-04T07:50:22;3.70;;;3.40;;
870;SDS011;422;51.280;7.236;2022-08-04T07:52:53;3.10;;;2.90;;
870;SDS011;422;51.280;7.236;2022-08-04T07:55:26;4.70;;;3.33;;
870;SDS011;422;51.280;7.236;2022-08-04T07:57:56;2.77;;;2.57;;
870;SDS011;422;51.280;7.236;2022-08-04T08:00:23;2.83;;;2.63;;
870;SDS011;422;51.280;7.236;2022-08-04T08:02:56;3.57;;;3.27;;
870;SDS011;422;51.280;7.236;2022-08-04T08:05:27;3.40;;;3.03;;
870;SDS011;422;51.280;7.236;2022-08-04T08:07:55;3.50;;;3.27;;
870;SDS011;422;51.280;7.236;2022-08-04T08:10:27;3.90;;;3.60;;
870;SDS011;422;51.280;7.236;2022-08-04T08:12:54;3.80;;;2.97;;
870;SDS011;422;51.280;7.236;2022-08-04T08:15:23;3.63;;;3.33;;
870;SDS011;422;51.280;7.236;2022-08-04T08:17:51;3.40;;;3.10;;
870;SDS011;422;51.280;7.236;2022-08-04T08:20:18;2.90;;;2.70;;
870;SDS011;422;51.280;7.236;2022-08-04T08:22:51;3.80;;;3.50;;
870;SDS011;422;51.280;7.236;2022-08-04T08:25:20;3.07;;;2.87;;
870;SDS011;422;51.280;7.236;2022-08-04T08:27:50;3.50;;;3.30;;
870;SDS011;422;51.280;7.236;2022-08-04T08:30:18;3.57;;;3.27;;
870;SDS011;422;51.280;7.236;2022-08-04T08:32:45;5.23;;;3.50;;
870;SDS011;422;51.280;7.236;2022-08-04T08:35:15;3.80;;;2.93;;
870;SDS011;422;51.280;7.236;2022-08-04T08:37:44;2.87;;;2.60;;
870;SDS011;422;51.280;7.236;2022-08-04T08:40:26;3.07;;;2.87;;
870;SDS011;422;51.280;7.236;2022-08-04T08:46:14;3.40;;;3.20;;
870;SDS011;422;51.280;7.236;2022-08-04T08:49:05;3.43;;;3.23;;
870;SDS011;422;51.280;7.236;2022-08-04T08:52:11;4.40;;;3.37;;
870;SDS011;422;51.280;7.236;2022-08-04T08:55:06;2.67;;;2.33;;
870;SDS011;422;51.280;7.236;2022-08-04T08:57:56;3.47;;;3.17;;
870;SDS011;422;51.280;7.236;2022-08-04T09:00:40;3.00;;;2.80;;
870;SDS011;422;51.280;7.236;2022-08-04T09:06:27;3.17;;;2.87;;
870;SDS011;422;51.280;7.236;2022-08-04T09:12:13;3.70;;;3.40;;
870;SDS011;422;51.280;7.236;2022-08-04T09:14:49;3.57;;;2.90;;
870;SDS011;422;51.280;7.236;2022-08-04T09:17:31;3.50;;;3.30;;
870;SDS011;422;51.280;7.236;2022-08-04T09:20:21;2.80;;;2.60;;
870;SDS011;422;51.280;7.236;2022-08-04T09:22:59;2.95;;;2.75;;
870;SDS011;422;51.280;7.236;2022-08-04T09:25:37;2.95;;;2.75;;
870;SDS011;422;51.280;7.236;2022-08-04T09:28:37;5.60;;;3.45;;
870;SDS011;422;51.280;7.236;2022-08-04T09:31:20;10.20;;;3.15;;
870;SDS011;422;51.280;7.236;2022-08-04T09:33:53;3.35;;;3.05;;
870;SDS011;422;51.280;7.236;2022-08-04T09:36:38;3.05;;;2.85;;
870;SDS011;422;51.280;7.236;2022-08-04T09:41:58;4.22;;;3.42;;
870;SDS011;422;51.280;7.236;2022-08-04T09:44:39;3.45;;;2.80;;
870;SDS011;422;51.280;7.236;2022-08-04T09:47:34;2.97;;;2.78;;
870;SDS011;422;51.280;7.236;2022-08-04T09:53:04;3.22;;;2.92;;
870;SDS011;422;51.280;7.236;2022-08-04T09:55:53;3.00;;;2.75;;
870;SDS011;422;51.280;7.236;2022-08-04T09:58:34;2.88;;;2.60;;
870;SDS011;422;51.280;7.236;2022-08-04T10:01:15;3.45;;;3.25;;
870;SDS011;422;51.280;7.236;2022-08-04T10:03:48;3.00;;;2.80;;
870;SDS011;422;51.280;7.236;2022-08-04T10:06:25;2.58;;;2.42;;
870;SDS011;422;51.280;7.236;2022-08-04T10:09:12;3.40;;;3.10;;
870;SDS011;422;51.280;7.236;2022-08-04T10:11:52;3.10;;;2.80;;
870;SDS011;422;51.280;7.236;2022-08-04T10:14:39;3.38;;;3.17;;
870;SDS011;422;51.280;7.236;2022-08-04T10:17:33;3.70;;;3.38;;
870;SDS011;422;51.280;7.236;2022-08-04T10:20:10;4.18;;;2.72;;
870;SDS011;422;51.280;7.236;2022-08-04T10:22:47;3.20;;;3.00;;
870;SDS011;422;51.280;7.236;2022-08-04T10:25:32;3.10;;;2.90;;
870;SDS011;422;51.280;7.236;2022-08-04T10:28:10;3.55;;;2.55;;
870;SDS011;422;51.280;7.236;2022-08-04T10:30:43;3.03;;;2.83;;
870;SDS011;422;51.280;7.236;2022-08-04T10:33:20;2.63;;;2.13;;
870;SDS011;422;51.280;7.236;2022-08-04T10:35:53;3.22;;;3.00;;
870;SDS011;422;51.280;7.236;2022-08-04T10:38:31;3.28;;;3.03;;
870;SDS011;422;51.280;7.236;2022-08-04T10:41:05;2.55;;;2.45;;
870;SDS011;422;51.280;7.236;2022-08-04T10:43:41;2.40;;;2.20;;
870;SDS011;422;51.280;7.236;2022-08-04T10:46:18;2.85;;;2.67;;
870;SDS011;422;51.280;7.236;2022-08-04T10:48:53;2.53;;;2.42;;
870;SDS011;422;51.280;7.236;2022-08-04T10:51:26;2.72;;;2.53;;
870;SDS011;422;51.280;7.236;2022-08-04T10:53:59;3.17;;;2.93;;
870;SDS011;422;51.280;7.236;2022-08-04T10:56:32;2.85;;;2.63;;
870;SDS011;422;51.280;7.236;2022-08-04T10:59:14;3.95;;;2.92;;
870;SDS011;422;51.280;7.236;2022-08-04T11:01:45;2.90;;;2.70;;
870;SDS011;422;51.280;7.236;2022-08-04T11:04:28;2.90;;;2.70;;
870;SDS011;422;51.280;7.236;2022-08-04T11:07:01;3.60;;;2.63;;
870;SDS011;422;51.280;7.236;2022-08-04T11:09:28;4.70;;;3.03;;
870;SDS011;422;51.280;7.236;2022-08-04T11:12:04;3.50;;;3.25;;
870;SDS011;422;51.280;7.236;2022-08-04T11:14:36;3.88;;;3.50;;
870;SDS011;422;51.280;7.236;2022-08-04T11:17:10;3.83;;;3.13;;
870;SDS011;422;51.280;7.236;2022-08-04T11:19:47;6.13;;;4.53;;
870;SDS011;422;51.280;7.236;2022-08-04T11:22:23;3.58;;;3.33;;
870;SDS011;422;51.280;7.236;2022-08-04T11:25:01;4.03;;;3.17;;
870;SDS011;422;51.280;7.236;2022-08-04T11:27:37;4.32;;;4.03;;
870;SDS011;422;51.280;7.236;2022-08-04T11:30:11;3.83;;;3.55;;
870;SDS011;422;51.280;7.236;2022-08-04T11:32:42;3.70;;;3.40;;
870;SDS011;422;51.280;7.236;2022-08-04T11:35:15;3.83;;;3.43;;
870;SDS011;422;51.280;7.236;2022-08-04T11:37:51;3.63;;;3.33;;
870;SDS011;422;51.280;7.236;2022-08-04T11:40:36;4.00;;;3.60;;
870;SDS011;422;51.280;7.236;2022-08-04T11:43:08;9.13;;;3.50;;
870;SDS011;422;51.280;7.236;2022-08-04T11:45:41;7.30;;;3.30;;
870;SDS011;422;51.280;7.236;2022-08-04T11:48:18;5.33;;;3.67;;
870;SDS011;422;51.280;7.236;2022-08-04T11:50:53;3.80;;;3.10;;
870;SDS011;422;51.280;7.236;2022-08-04T11:53:33;4.43;;;2.90;;
870;SDS011;422;51.280;7.236;2022-08-04T11:56:05;4.37;;;4.07;;
870;SDS011;422;51.280;7.236;2022-08-04T11:58:37;6.60;;;3.43;;
870;SDS011;422;51.280;7.236;2022-08-04T12:01:11;3.43;;;2.80;;
870;SDS011;422;51.280;7.236;2022-08-04T12:03:54;5.20;;;3.90;;
870;SDS011;422;51.280;7.236;2022-08-04T12:06:29;6.43;;;3.90;;
870;SDS011;422;51.280;7.236;2022-08-04T12:09:04;5.83;;;3.97;;
870;SDS011;422;51.280;7.236;2022-08-04T12:11:51;7.00;;;3.53;;
870;SDS011;422;51.280;7.236;2022-08-04T12:14:37;4.60;;;3.67;;
870;SDS011;422;51.280;7.236;2022-08-04T12:17:13;4.10;;;3.27;;
870;SDS011;422;51.280;7.236;2022-08-04T12:19:54;4.33;;;3.60;;
870;SDS011;422;51.280;7.236;2022-08-04T12:22:25;3.87;;;3.03;;
870;SDS011;422;51.280;7.236;2022-08-04T12:24:57;3.80;;;3.23;;
870;SDS011;422;51.280;7.236;2022-08-04T12:27:30;5.77;;;3.30;;
870;SDS011;422;51.280;7.236;2022-08-04T12:30:05;5.03;;;3.30;;
870;SDS011;422;51.280;7.236;2022-08-04T12:32:35;3.80;;;3.33;;
870;SDS011;422;51.280;7.236;2022-08-04T12:35:06;4.10;;;3.10;;
870;SDS011;422;51.280;7.236;2022-08-04T12:37:45;3.60;;;3.30;;
870;SDS011;422;51.280;7.236;2022-08-04T12:40:24;3.80;;;2.90;;
870;SDS011;422;51.280;7.236;2022-08-04T12:42:55;4.60;;;3.40;;
870;SDS011;422;51.280;7.236;2022-08-04T12:45:28;5.63;;;4.07;;
870;SDS011;422;51.280;7.236;2022-08-04T12:47:59;4.40;;;3.33;;
870;SDS011;422;51.280;7.236;2022-08-04T12:50:29;3.57;;;3.27;;
870;SDS011;422;51.280;7.236;2022-08-04T12:53:02;3.33;;;3.07;;
870;SDS011;422;51.280;7.236;2022-08-04T12:55:38;4.97;;;4.37;;
870;SDS011;422;51.280;7.236;2022-08-04T12:58:17;3.47;;;3.27;;
870;SDS011;422;51.280;7.236;2022-08-04T13:00:49;4.00;;;2.90;;
870;SDS011;422;51.280;7.236;2022-08-04T13:03:25;5.60;;;3.50;;
870;SDS011;422;51.280;7.236;2022-08-04T13:05:55;4.53;;;3.60;;
870;SDS011;422;51.280;7.236;2022-08-04T13:08:24;4.77;;;3.10;;
870;SDS011;422;51.280;7.236;2022-08-04T13:10:52;4.40;;;3.60;;
870;SDS011;422;51.280;7.236;2022-08-04T13:13:23;4.30;;;2.83;;
870;SDS011;422;51.280;7.236;2022-08-04T13:15:56;4.93;;;3.30;;
870;SDS011;422;51.280;7.236;2022-08-04T13:18:27;3.60;;;3.23;;
870;SDS011;422;51.280;7.236;2022-08-04T13:20:55;3.70;;;3.40;;
870;SDS011;422;51.280;7.236;2022-08-04T13:23:35;5.20;;;3.40;;
870;SDS011;422;51.280;7.236;2022-08-04T13:26:03;4.03;;;3.63;;
870;SDS011;422;51.280;7.236;2022-08-04T13:28:37;3.60;;;3.30;;
870;SDS011;422;51.280;7.236;2022-08-04T13:31:16;3.73;;;3.40;;
870;SDS011;422;51.280;7.236;2022-08-04T13:33:51;4.27;;;3.27;;
870;SDS011;422;51.280;7.236;2022-08-04T13:36:29;6.30;;;3.70;;
870;SDS011;422;51.280;7.236;2022-08-04T13:39:01;3.67;;;3.37;;
870;SDS011;422;51.280;7.236;2022-08-04T13:41:37;3.80;;;3.60;;
870;SDS011;422;51.280;7.236;2022-08-04T13:44:10;4.87;;;3.67;;
870;SDS011;422;51.280;7.236;2022-08-04T13:46:39;7.50;;;4.47;;
870;SDS011;422;51.280;7.236;2022-08-04T13:49:14;5.40;;;3.80;;
870;SDS011;422;51.280;7.236;2022-08-04T13:51:50;5.77;;;3.40;;
870;SDS011;422;51.280;7.236;2022-08-04T13:54:22;3.67;;;3.37;;
870;SDS011;422;51.280;7.236;2022-08-04T13:56:54;4.80;;;3.63;;
870;SDS011;422;51.280;7.236;2022-08-04T13:59:26;4.10;;;3.30;;
870;SDS011;422;51.280;7.236;2022-08-04T14:01:59;5.97;;;4.50;;
870;SDS011;422;51.280;7.236;2022-08-04T14:04:28;4.53;;;3.60;;
870;SDS011;422;51.280;7.236;2022-08-04T14:07:02;8.10;;;4.13;;
870;SDS011;422;51.280;7.236;2022-08-04T14:09:40;6.43;;;3.63;;
870;SDS011;422;51.280;7.236;2022-08-04T14:12:08;6.20;;;3.90;;
870;SDS011;422;51.280;7.236;2022-08-04T14:14:43;4.70;;;4.30;;
870;SDS011;422;51.280;7.236;2022-08-04T14:17:14;3.67;;;3.23;;
870;SDS011;422;51.280;7.236;2022-08-04T14:19:53;7.57;;;3.97;;
870;SDS011;422;51.280;7.236;2022-08-04T14:22:31;4.53;;;4.13;;
870;SDS011;422;51.280;7.236;2022-08-04T14:25:04;5.53;;;4.37;;
870;SDS011;422;51.280;7.236;2022-08-04T14:27:42;4.70;;;3.77;;
870;SDS011;422;51.280;7.236;2022-08-04T14:30:27;3.87;;;3.50;;
870;SDS011;422;51.280;7.236;2022-08-04T14:32:57;5.03;;;3.20;;
870;SDS011;422;51.280;7.236;2022-08-04T14:35:26;3.70;;;3.40;;
870;SDS011;422;51.280;7.236;2022-08-04T14:37:57;5.43;;;3.70;;
870;SDS011;422;51.280;7.236;2022-08-04T14:40:28;4.53;;;3.90;;
870;SDS011;422;51.280;7.236;2022-08-04T14:43:03;4.50;;;4.10;;
870;SDS011;422;51.280;7.236;2022-08-04T14:45:35;3.57;;;3.27;;
870;SDS011;422;51.280;7.236;2022-08-04T14:48:06;5.20;;;4.77;;
870;SDS011;422;51.280;7.236;2022-08-04T14:50:37;6.23;;;3.47;;
870;SDS011;422;51.280;7.236;2022-08-04T14:53:07;4.80;;;4.30;;
870;SDS011;422;51.280;7.236;2022-08-04T14:55:38;5.53;;;3.53;;
870;SDS011;422;51.280;7.236;2022-08-04T14:58:15;8.90;;;4.90;;
870;SDS011;422;51.280;7.236;2022-08-04T15:00:44;4.73;;;4.33;;
870;SDS011;422;51.280;7.236;2022-08-04T15:03:12;8.63;;;4.70;;
870;SDS011;422;51.280;7.236;2022-08-04T15:05:43;4.87;;;4.37;;
870;SDS011;422;51.280;7.236;2022-08-04T15:08:12;5.50;;;4.50;;
870;SDS011;422;51.280;7.236;2022-08-04T15:10:43;5.00;;;4.50;;
870;SDS011;422;51.280;7.236;2022-08-04T15:13:11;5.40;;;4.13;;
870;SDS011;422;51.280;7.236;2022-08-04T15:15:39;5.63;;;3.80;;
870;SDS011;422;51.280;7.236;2022-08-04T15:18:07;7.10;;;5.33;;
870;SDS011;422;51.280;7.236;2022-08-04T15:20:35;5.30;;;4.30;;
870;SDS011;422;51.280;7.236;2022-08-04T15:23:09;5.13;;;4.43;;
870;SDS011;422;51.280;7.236;2022-08-04T15:25:38;4.67;;;4.27;;
870;SDS011;422;51.280;7.236;2022-08-04T15:28:12;8.80;;;4.50;;
870;SDS011;422;51.280;7.236;2022-08-04T15:30:45;6.77;;;3.80;;
870;SDS011;422;51.280;7.236;2022-08-04T15:33:15;7.53;;;3.83;;
870;SDS011;422;51.280;7.236;2022-08-04T15:35:52;5.10;;;4.00;;
870;SDS011;422;51.280;7.236;2022-08-04T15:38:24;4.73;;;4.23;;
870;SDS011;422;51.280;7.236;2022-08-04T15:41:01;3.77;;;3.47;;
870;SDS011;422;51.280;7.236;2022-08-04T15:43:39;4.90;;;3.77;;
870;SDS011;422;51.280;7.236;2022-08-04T15:46:17;3.93;;;3.63;;
870;SDS011;422;51.280;7.236;2022-08-04T15:49:14;3.97;;;3.57;;
870;SDS011;422;51.280;7.236;2022-08-04T15:51:44;4.33;;;3.27;;
870;SDS011;422;51.280;7.236;2022-08-04T15:54:20;4.23;;;3.63;;
870;SDS011;422;51.280;7.236;2022-08-04T15:56:48;4.53;;;4.20;;
870;SDS011;422;51.280;7.236;2022-08-04T16:02:34;7.97;;;3.80;;
870;SDS011;422;51.280;7.236;2022-08-04T16:08:18;8.13;;;3.50;;
870;SDS011;422;51.280;7.236;2022-08-04T16:10:50;5.47;;;3.90;;
870;SDS011;422;51.280;7.236;2022-08-04T16:13:21;6.37;;;4.20;;
870;SDS011;422;51.280;7.236;2022-08-04T16:15:51;9.83;;;5.23;;
870;SDS011;422;51.280;7.236;2022-08-04T16:18:37;4.40;;;3.90;;
870;SDS011;422;51.280;7.236;2022-08-04T16:21:21;4.00;;;3.70;;
870;SDS011;422;51.280;7.236;2022-08-04T16:26:51;4.33;;;3.80;;
870;SDS011;422;51.280;7.236;2022-08-04T16:29:32;6.57;;;3.47;;
870;SDS011;422;51.280;7.236;2022-08-04T16:32:08;4.70;;;4.30;;
870;SDS011;422;51.280;7.236;2022-08-04T16:34:44;6.93;;;5.20;;
870;SDS011;422;51.280;7.236;2022-08-04T16:37:19;5.70;;;3.90;;
870;SDS011;422;51.280;7.236;2022-08-04T16:43:03;6.60;;;5.53;;
870;SDS011;422;51.280;7.236;2022-08-04T16:48:21;6.47;;;5.00;;
870;SDS011;422;51.280;7.236;2022-08-04T16:50:59;9.27;;;4.93;;
870;SDS011;422;51.280;7.236;2022-08-04T16:53:32;7.30;;;5.03;;
870;SDS011;422;51.280;7.236;2022-08-04T16:56:00;6.10;;;4.43;;
870;SDS011;422;51.280;7.236;2022-08-04T16:58:31;6.67;;;5.20;;
870;SDS011;422;51.280;7.236;2022-08-04T17:01:05;6.80;;;4.50;;
870;SDS011;422;51.280;7.236;2022-08-04T17:03:37;7.20;;;4.73;;
870;SDS011;422;51.280;7.236;2022-08-04T17:06:07;9.67;;;4.60;;
870;SDS011;422;51.280;7.236;2022-08-04T17:08:36;8.00;;;5.30;;
870;SDS011;422;51.280;7.236;2022-08-04T17:11:04;6.97;;;4.10;;
870;SDS011;422;51.280;7.236;2022-08-04T17:13:34;5.80;;;4.87;;
870;SDS011;422;51.280;7.236;2022-08-04T17:16:06;6.40;;;4.63;;
870;SDS011;422;51.280;7.236;2022-08-04T17:18:41;8.90;;;5.60;;
870;SDS011;422;51.280;7.236;2022-08-04T17:21:16;7.60;;;4.70;;
870;SDS011;422;51.280;7.236;2022-08-04T17:23:51;7.00;;;4.20;;
870;SDS011;422;51.280;7.236;2022-08-04T17:26:23;7.60;;;4.27;;
870;SDS011;422;51.280;7.236;2022-08-04T17:28:55;5.23;;;4.20;;
870;SDS011;422;51.280;7.236;2022-08-04T17:31:26;8.30;;;4.97;;
870;SDS011;422;51.280;7.236;2022-08-04T17:33:58;7.73;;;5.13;;
870;SDS011;422;51.280;7.236;2022-08-04T17:36:30;8.20;;;5.80;;
870;SDS011;422;51.280;7.236;2022-08-04T17:39:03;5.20;;;4.73;;
870;SDS011;422;51.280;7.236;2022-08-04T17:41:53;8.20;;;5.33;;
870;SDS011;422;51.280;7.236;2022-08-04T17:44:23;7.53;;;4.60;;
870;SDS011;422;51.280;7.236;2022-08-04T17:47:14;6.20;;;4.73;;
870;SDS011;422;51.280;7.236;2022-08-04T17:49:45;6.20;;;4.67;;
870;SDS011;422;51.280;7.236;2022-08-04T17:52:19;7.20;;;5.27;;
870;SDS011;422;51.280;7.236;2022-08-04T17:54:46;9.60;;;5.00;;
870;SDS011;422;51.280;7.236;2022-08-04T17:57:29;5.40;;;4.90;;
870;SDS011;422;51.280;7.236;2022-08-04T17:59:56;10.23;;;4.87;;